Time;durP1;ratioP1;P1;durP2;ratioP2;P2;SDS_P1;SDS_P2;PMS_P1;PMS_P2;Temp;Humidity;BMP_temperature;BMP_pressure;BME280_temperature;BME280_humidity;BME280_pressure;Samples;Min_cycle;Max_cycle;Signal;HPM_P1;HPM_P2
2022/01/14 00:02:04;;;;;;;17.00;7.37;;;;;;;-0.25;88.52;100102.66;4485926;32;20127;-71
2022/01/14 00:04:31;;;;;;;19.98;7.80;;;;;;;-0.31;88.87;100097.66;4485985;31;20557;-71
2022/01/14 00:06:58;;;;;;;17.70;8.20;;;;;;;-0.39;89.36;100090.12;4485912;31;20088;-71
2022/01/14 00:09:26;;;;;;;24.83;9.25;;;;;;;-0.41;89.57;100091.03;4485919;31;20530;-71
2022/01/14 00:11:57;;;;;;;27.05;9.10;;;;;;;-0.57;90.49;100083.66;4485875;31;20450;-71
2022/01/14 00:14:41;;;;;;;21.00;9.02;;;;;;;-0.60;91.00;100076.00;4484763;32;20157;-71
2022/01/14 00:17:11;;;;;;;21.30;9.17;;;;;;;-0.61;91.16;100082.03;4485834;31;20088;-72
2022/01/14 00:19:39;;;;;;;18.48;7.57;;;;;;;-0.72;92.02;100086.56;4485880;31;20093;-72
2022/01/14 00:22:11;;;;;;;25.48;8.77;;;;;;;-0.68;93.09;100088.22;4485734;31;20092;-72
2022/01/14 00:33:12;;;;;;;20.27;8.02;;;;;;;-0.68;94.98;100080.47;4486182;31;20079;-71
2022/01/14 00:35:41;;;;;;;17.40;6.85;;;;;;;-0.59;95.37;100072.56;4485930;31;20159;-71
2022/01/14 00:38:10;;;;;;;20.85;8.05;;;;;;;-0.57;95.65;100060.50;4485668;31;20089;-72
2022/01/14 00:40:38;;;;;;;19.67;7.05;;;;;;;-0.59;95.92;100051.97;4485597;31;20157;-71
2022/01/14 00:43:05;;;;;;;15.15;7.47;;;;;;;-0.59;96.06;100043.38;4484394;32;20112;-71
2022/01/14 00:45:33;;;;;;;21.02;8.60;;;;;;;-0.55;95.80;100051.00;4485745;31;20412;-72
2022/01/14 00:48:02;;;;;;;16.50;7.07;;;;;;;-0.63;96.27;100047.75;4485475;31;20789;-71
2022/01/14 00:50:30;;;;;;;20.37;8.63;;;;;;;-0.68;96.44;100047.03;4485643;31;20134;-71
2022/01/14 00:52:57;;;;;;;18.92;7.45;;;;;;;-0.50;96.24;100052.62;4485337;31;20088;-72
2022/01/14 00:55:30;;;;;;;23.48;8.27;;;;;;;-0.48;96.29;100043.16;4485538;31;20123;-71
2022/01/14 01:00:35;;;;;;;18.08;7.28;;;;;;;-0.68;98.19;100044.47;4485567;31;20127;-72
2022/01/14 01:03:03;;;;;;;24.10;8.18;;;;;;;-0.65;98.28;100049.53;4485621;31;20080;-71
2022/01/14 01:05:30;;;;;;;20.00;8.00;;;;;;;-0.78;98.30;100046.38;4485578;31;20211;-72
2022/01/14 01:08:06;;;;;;;17.35;7.60;;;;;;;-0.88;97.99;100050.03;4485366;31;20118;-72
2022/01/14 01:10:35;;;;;;;21.98;8.77;;;;;;;-0.83;98.37;100049.91;4484362;32;20550;-72
2022/01/14 01:13:19;;;;;;;22.15;9.25;;;;;;;-0.77;97.54;100042.09;4485597;31;20104;-71
2022/01/14 01:15:47;;;;;;;21.37;8.65;;;;;;;-0.87;97.26;100040.59;4485519;31;20112;-72
2022/01/14 01:18:14;;;;;;;18.12;8.48;;;;;;;-0.82;96.33;100043.91;4485306;31;20161;-72
2022/01/14 01:20:41;;;;;;;25.40;9.15;;;;;;;-0.86;96.14;100042.28;4485373;31;20123;-71
2022/01/14 01:23:08;;;;;;;27.27;9.60;;;;;;;-0.83;95.74;100037.06;4485351;31;20100;-72
2022/01/14 01:25:42;;;;;;;22.67;8.57;;;;;;;-0.74;95.28;100044.59;4485755;31;20602;-71
2022/01/14 01:28:09;;;;;;;22.92;9.23;;;;;;;-0.77;95.28;100037.78;4485253;31;20084;-72
2022/01/14 01:33:05;;;;;;;19.12;8.25;;;;;;;-0.79;94.85;100036.97;4485310;31;20108;-71
2022/01/14 01:35:33;;;;;;;21.65;9.45;;;;;;;-0.92;95.16;100031.25;4485413;32;20104;-72
2022/01/14 01:38:00;;;;;;;21.83;8.25;;;;;;;-0.96;95.18;100026.19;4485357;31;20088;-71
2022/01/14 01:40:28;;;;;;;21.92;8.73;;;;;;;-1.08;95.88;100032.44;4484310;31;20104;-72
2022/01/14 01:42:57;;;;;;;21.20;9.80;;;;;;;-1.25;95.88;100020.78;4485141;31;20156;-72
2022/01/14 01:45:26;;;;;;;23.35;9.32;;;;;;;-1.35;96.29;100027.00;4485262;31;20100;-72
2022/01/14 01:47:54;;;;;;;26.37;10.50;;;;;;;-1.49;97.31;100027.28;4485176;31;20092;-71
2022/01/14 01:50:25;;;;;;;23.55;9.55;;;;;;;-1.59;97.49;100019.78;4485691;31;20185;-71
2022/01/14 01:52:54;;;;;;;21.50;9.55;;;;;;;-1.61;97.57;100024.94;4484809;31;20116;-71
2022/01/14 01:55:22;;;;;;;20.08;9.18;;;;;;;-1.41;98.79;100023.72;4485188;31;20106;-71
2022/01/14 01:57:51;;;;;;;22.98;9.60;;;;;;;-1.37;98.56;100012.50;4485158;32;20934;-71
2022/01/14 02:00:25;;;;;;;21.80;9.13;;;;;;;-1.31;98.34;100010.63;4485113;31;20097;-72
2022/01/14 02:02:54;;;;;;;25.88;9.13;;;;;;;-1.27;99.26;100004.56;4485245;32;20186;-71
2022/01/14 02:05:22;;;;;;;20.45;9.52;;;;;;;-1.22;98.60;99999.31;4483848;32;20096;-71
2022/01/14 02:07:50;;;;;;;19.87;8.32;;;;;;;-1.35;99.01;99998.72;4485341;31;20088;-71
2022/01/14 02:10:17;;;;;;;21.45;8.63;;;;;;;-1.26;99.20;99987.41;4484930;31;20104;-71
2022/01/14 02:12:51;;;;;;;23.80;8.60;;;;;;;-1.18;99.49;99984.66;4485432;31;20183;-71
2022/01/14 02:23:30;;;;;;;20.75;9.10;;;;;;;-1.03;98.71;99978.34;4484894;31;20507;-71
2022/01/14 02:25:58;;;;;;;20.70;8.93;;;;;;;-1.09;98.64;99966.47;4484908;31;20135;-71
2022/01/14 02:28:25;;;;;;;25.25;8.98;;;;;;;-1.12;98.91;99958.81;4484826;31;20100;-72
2022/01/14 02:30:53;;;;;;;20.50;8.85;;;;;;;-1.21;99.62;99956.44;4485053;31;20207;-72
2022/01/14 02:33:20;;;;;;;24.35;9.18;;;;;;;-1.25;99.50;99956.50;4484961;31;20092;-71
2022/01/14 02:35:49;;;;;;;26.83;9.65;;;;;;;-1.27;100.00;99960.03;4485083;32;20134;-71
2022/01/14 02:38:18;;;;;;;22.00;9.05;;;;;;;-1.19;100.00;99952.12;4484837;31;20121;-72
2022/01/14 02:40:46;;;;;;;26.67;9.18;;;;;;;-1.14;100.00;99940.00;4485060;31;20101;-71
2022/01/14 02:43:15;;;;;;;21.45;9.10;;;;;;;-1.21;100.00;99939.31;4484732;31;20086;-71
2022/01/14 02:45:49;;;;;;;26.42;8.07;;;;;;;-1.02;100.00;99942.31;4483858;32;20088;-71
2022/01/14 02:48:18;;;;;;;20.17;9.00;;;;;;;-1.13;100.00;99942.56;4484637;31;20118;-72
2022/01/14 02:51:20;;;;;;;24.60;9.05;;;;;;;-1.15;100.00;99943.44;4484608;32;20143;-72
2022/01/14 02:56:10;;;;;;;23.20;8.50;;;;;;;-1.32;100.00;99931.84;4484706;31;20544;-72
2022/01/14 02:58:39;;;;;;;20.70;8.57;;;;;;;-1.23;100.00;99933.34;4484560;31;20144;-71
2022/01/14 03:01:13;;;;;;;20.23;9.23;;;;;;;-1.22;100.00;99936.78;4484423;31;20104;-71
2022/01/14 03:03:44;;;;;;;22.75;7.65;;;;;;;-1.09;100.00;99930.47;4484582;31;20131;-71
2022/01/14 03:06:12;;;;;;;17.80;8.05;;;;;;;-1.10;100.00;99926.22;4484547;31;20096;-71
2022/01/14 03:08:43;;;;;;;22.75;8.80;;;;;;;-1.12;100.00;99915.97;4484486;32;20080;-71
2022/01/14 03:11:14;;;;;;;21.80;9.30;;;;;;;-1.17;100.00;99911.81;4484257;31;20089;-72
2022/01/14 03:13:41;;;;;;;19.77;8.55;;;;;;;-1.23;100.00;99917.09;4484431;31;20461;-71
2022/01/14 03:16:09;;;;;;;19.85;8.70;;;;;;;-1.36;100.00;99919.06;4484327;31;20136;-71
2022/01/14 03:18:49;;;;;;;20.92;9.55;;;;;;;-1.53;100.00;99909.16;4484172;31;20080;-71
2022/01/14 03:21:25;;;;;;;21.25;8.38;;;;;;;-1.64;100.00;99911.94;4484515;31;20152;-72
2022/01/14 03:24:03;;;;;;;23.15;9.18;;;;;;;-1.79;100.00;99905.41;4484253;31;20118;-72
2022/01/14 03:26:30;;;;;;;25.62;9.63;;;;;;;-1.84;100.00;99904.66;4484043;31;20444;-72
2022/01/14 03:28:57;;;;;;;22.15;9.18;;;;;;;-1.98;100.00;99910.91;4484110;31;20141;-72
2022/01/14 03:31:24;;;;;;;23.77;8.98;;;;;;;-2.08;100.00;99901.69;4484081;31;20116;-71
2022/01/14 03:33:52;;;;;;;20.23;8.23;;;;;;;-1.97;100.00;99897.22;4484025;31;20143;-72
2022/01/14 03:36:19;;;;;;;21.50;8.27;;;;;;;-1.82;100.00;99893.50;4484060;31;20111;-72
2022/01/14 03:38:46;;;;;;;18.98;9.00;;;;;;;-1.81;100.00;99892.59;4484074;31;20107;-72
2022/01/14 03:41:13;;;;;;;19.67;8.38;;;;;;;-1.67;100.00;99884.59;4484126;31;20154;-72
2022/01/14 03:43:41;;;;;;;19.10;7.72;;;;;;;-1.29;100.00;99885.50;4483971;31;20092;-71
2022/01/14 03:46:09;;;;;;;18.52;8.18;;;;;;;-0.95;100.00;99882.13;4483739;31;20093;-71
2022/01/14 03:48:36;;;;;;;18.20;7.65;;;;;;;-0.75;100.00;99880.78;4483718;31;20172;-72
2022/01/14 03:51:04;;;;;;;18.80;7.65;;;;;;;-0.56;100.00;99876.00;4483588;31;20100;-71
2022/01/14 03:53:31;;;;;;;18.12;6.93;;;;;;;-0.49;100.00;99856.13;4483806;31;20088;-71
2022/01/14 03:55:58;;;;;;;14.87;6.07;;;;;;;-0.40;100.00;99861.03;4483641;31;20175;-72
2022/01/14 03:58:39;;;;;;;15.68;7.18;;;;;;;-0.38;100.00;99859.25;4483699;31;20072;-72
2022/01/14 04:01:10;;;;;;;19.02;7.87;;;;;;;-0.42;100.00;99855.09;4483705;31;20494;-72
2022/01/14 04:03:39;;;;;;;18.62;7.72;;;;;;;-0.48;100.00;99858.66;4483830;31;20205;-72
2022/01/14 04:06:07;;;;;;;16.45;6.28;;;;;;;-0.54;100.00;99853.69;4486134;31;20103;-72
2022/01/14 04:08:34;;;;;;;22.90;7.97;;;;;;;-0.61;100.00;99857.28;4486061;31;20097;-72
2022/01/14 04:11:03;;;;;;;16.80;7.55;;;;;;;-0.59;100.00;99852.94;4485952;31;20492;-71
2022/01/14 04:14:18;;;;;;;17.60;6.22;;;;;;;-0.62;100.00;99865.88;4486053;31;20092;-72
2022/01/14 04:16:25;;;;;;;19.05;7.60;;;;;;;-0.66;100.00;99859.97;4485046;32;20450;-72
2022/01/14 04:18:52;;;;;;;18.65;7.07;;;;;;;-0.73;100.00;99861.88;4486020;31;20088;-71
2022/01/14 04:21:20;;;;;;;18.62;7.90;;;;;;;-0.82;100.00;99856.09;4485803;31;20100;-71
2022/01/14 04:23:47;;;;;;;18.58;7.53;;;;;;;-0.84;100.00;99851.00;4485965;31;20521;-71
2022/01/14 04:26:15;;;;;;;19.67;7.28;;;;;;;-0.83;100.00;99842.41;4485784;31;20456;-71
2022/01/14 04:28:42;;;;;;;21.48;8.18;;;;;;;-0.91;100.00;99834.88;4485747;31;20429;-72
2022/01/14 04:31:10;;;;;;;18.65;6.78;;;;;;;-0.96;100.00;99831.56;4485974;31;20148;-72
2022/01/14 04:33:37;;;;;;;21.75;7.05;;;;;;;-1.06;100.00;99835.22;4485805;31;20506;-72
2022/01/14 04:36:05;;;;;;;25.27;8.48;;;;;;;-1.13;100.00;99842.25;4485767;31;20118;-72
2022/01/14 04:38:33;;;;;;;18.80;7.68;;;;;;;-1.15;100.00;99832.87;4485788;32;20487;-72
2022/01/14 04:41:01;;;;;;;18.08;7.10;;;;;;;-1.21;100.00;99845.91;4485863;31;20088;-72
2022/01/14 04:43:29;;;;;;;21.15;7.75;;;;;;;-1.26;100.00;99835.72;4485852;31;20123;-72
2022/01/14 04:48:35;;;;;;;18.77;7.55;;;;;;;-1.18;100.00;99825.25;4485626;32;20091;-71
2022/01/14 04:51:05;;;;;;;22.65;7.32;;;;;;;-1.25;100.00;99835.69;4485650;31;20171;-71
2022/01/14 04:53:33;;;;;;;20.92;7.62;;;;;;;-1.35;100.00;99823.91;4485721;31;20490;-71
2022/01/14 04:56:00;;;;;;;20.20;7.87;;;;;;;-1.30;100.00;99827.25;4485544;31;20450;-72
2022/01/14 04:58:28;;;;;;;22.58;8.45;;;;;;;-1.26;100.00;99821.16;4484377;32;20498;-72
2022/01/14 05:00:55;;;;;;;18.92;7.30;;;;;;;-1.17;100.00;99799.50;4485591;31;20163;-72
2022/01/14 05:03:23;;;;;;;23.85;8.20;;;;;;;-1.13;100.00;99800.28;4485451;31;20125;-71
2022/01/14 05:05:54;;;;;;;21.77;7.55;;;;;;;-1.09;100.00;99799.31;4485559;31;20143;-72
2022/01/14 05:08:28;;;;;;;17.33;7.20;;;;;;;-0.99;100.00;99803.34;4485405;31;20127;-72
2022/01/14 05:13:25;;;;;;;15.48;6.93;;;;;;;-0.93;100.00;99795.47;4485551;31;20733;-72
2022/01/14 05:15:53;;;;;;;14.30;5.87;;;;;;;-0.86;100.00;99798.75;4484151;32;20131;-72
2022/01/14 05:18:22;;;;;;;18.77;7.62;;;;;;;-0.92;100.00;99799.75;4485317;31;20163;-72
2022/01/14 05:20:51;;;;;;;18.62;7.37;;;;;;;-0.99;100.00;99795.63;4485486;32;20200;-72
2022/01/14 05:23:18;;;;;;;19.77;8.85;;;;;;;-1.01;100.00;99781.16;4485402;31;20092;-72
2022/01/14 05:25:46;;;;;;;23.30;8.35;;;;;;;-1.01;100.00;99784.56;4485535;31;20135;-72
2022/01/14 05:28:13;;;;;;;20.15;8.00;;;;;;;-1.02;100.00;99790.56;4485443;31;20111;-72
2022/01/14 05:30:40;;;;;;;22.48;9.40;;;;;;;-1.07;100.00;99795.81;4485375;31;20096;-72
2022/01/14 05:33:08;;;;;;;21.92;8.85;;;;;;;-1.12;100.00;99791.66;4485475;31;20168;-72
2022/01/14 05:35:35;;;;;;;19.50;7.97;;;;;;;-1.14;100.00;99801.16;4485377;31;20093;-72
2022/01/14 05:38:02;;;;;;;21.67;10.05;;;;;;;-1.23;100.00;99797.09;4485199;31;20408;-72
2022/01/14 05:40:30;;;;;;;22.10;8.25;;;;;;;-1.36;100.00;99801.69;4485453;32;20149;-72
2022/01/14 05:42:59;;;;;;;20.05;8.38;;;;;;;-1.38;100.00;99790.59;4485308;31;20363;-72
2022/01/14 05:45:26;;;;;;;19.85;7.80;;;;;;;-1.44;100.00;99789.03;4485306;31;20088;-72
2022/01/14 05:47:54;;;;;;;23.23;8.20;;;;;;;-1.51;100.00;99784.06;4484933;31;20160;-72
2022/01/14 05:50:23;;;;;;;21.10;8.52;;;;;;;-1.48;100.00;99784.81;4485244;32;20100;-72
2022/01/14 05:52:51;;;;;;;32.17;9.52;;;;;;;-1.50;100.00;99791.75;4479065;31;20126;-72
2022/01/14 05:55:21;;;;;;;22.83;9.07;;;;;;;-1.58;100.00;99779.94;4478071;32;20120;-72
2022/01/14 05:57:48;;;;;;;21.92;8.60;;;;;;;-1.62;100.00;99792.88;4473229;31;20088;-72
2022/01/14 06:00:17;;;;;;;17.27;6.82;;;;;;;-1.50;100.00;99784.03;4468555;32;20131;-72
2022/01/14 06:02:48;;;;;;;22.87;9.85;;;;;;;-1.25;100.00;99779.13;4477218;32;20100;-72
2022/01/14 06:05:16;;;;;;;18.00;7.72;;;;;;;-1.29;100.00;99780.09;4479786;32;20088;-72
2022/01/14 06:07:44;;;;;;;20.37;8.63;;;;;;;-1.38;100.00;99789.75;4478486;31;20100;-72
2022/01/14 06:10:11;;;;;;;20.65;8.30;;;;;;;-1.52;100.00;99785.78;4480602;31;20906;-72
2022/01/14 06:12:39;;;;;;;23.05;8.90;;;;;;;-1.65;100.00;99786.94;4476678;31;20184;-72
2022/01/14 06:15:06;;;;;;;21.10;8.60;;;;;;;-1.76;100.00;99779.47;4479623;31;20144;-72
2022/01/14 06:17:33;;;;;;;18.62;8.40;;;;;;;-1.69;100.00;99783.59;4479579;31;20123;-72
2022/01/14 06:20:03;;;;;;;23.80;8.90;;;;;;;-1.76;100.00;99781.22;4484174;31;20188;-72
2022/01/14 06:22:30;;;;;;;22.62;9.27;;;;;;;-1.72;100.00;99775.97;4475230;31;20127;-72
2022/01/14 06:24:58;;;;;;;22.17;9.18;;;;;;;-1.80;100.00;99780.44;4479202;32;20525;-72
2022/01/14 06:27:27;;;;;;;27.87;9.88;;;;;;;-1.87;100.00;99779.72;4475890;32;20088;-72
2022/01/14 06:29:54;;;;;;;23.87;8.95;;;;;;;-1.92;100.00;99768.72;4474444;32;20092;-72
2022/01/14 06:32:21;;;;;;;26.37;8.85;;;;;;;-1.98;100.00;99768.84;4480731;31;20119;-72
2022/01/14 06:34:48;;;;;;;22.08;8.95;;;;;;;-1.99;100.00;99769.72;4477403;31;20143;-72
2022/01/14 06:37:16;;;;;;;26.73;9.52;;;;;;;-2.01;100.00;99771.47;4483239;31;20172;-72
2022/01/14 06:39:43;;;;;;;24.02;9.52;;;;;;;-1.84;100.00;99777.06;4482458;32;20116;-72
2022/01/14 06:42:11;;;;;;;20.15;7.93;;;;;;;-1.76;100.00;99776.91;4482593;31;20161;-72
2022/01/14 06:44:38;;;;;;;23.65;8.82;;;;;;;-1.83;100.00;99780.50;4481620;31;20131;-72
2022/01/14 06:47:05;;;;;;;28.20;9.05;;;;;;;-1.74;100.00;99770.03;4479347;31;20109;-72
2022/01/14 06:49:32;;;;;;;15.85;7.00;;;;;;;-1.48;100.00;99769.41;4475250;32;20973;-72
2022/01/14 06:52:00;;;;;;;21.80;8.32;;;;;;;-1.25;100.00;99760.28;4481820;31;21076;-72
2022/01/14 06:54:27;;;;;;;18.73;7.97;;;;;;;-1.14;100.00;99755.72;4484206;31;20092;-72
2022/01/14 06:56:55;;;;;;;14.13;7.12;;;;;;;-1.11;100.00;99767.66;4478019;31;20179;-72
2022/01/14 06:59:22;;;;;;;20.73;8.02;;;;;;;-0.91;100.00;99767.13;4481122;32;20123;-73
2022/01/14 07:01:49;;;;;;;18.42;7.55;;;;;;;-0.91;100.00;99774.84;4478314;31;20205;-72
2022/01/14 07:04:16;;;;;;;17.00;7.37;;;;;;;-0.79;100.00;99773.69;4482041;31;20109;-73
2022/01/14 07:06:43;;;;;;;21.58;8.13;;;;;;;-0.78;100.00;99763.38;4482439;31;20096;-72
2022/01/14 07:09:11;;;;;;;16.55;6.75;;;;;;;-0.58;100.00;99767.97;4480729;31;20104;-72
2022/01/14 07:11:38;;;;;;;18.85;7.35;;;;;;;-0.48;100.00;99765.16;4486645;31;20435;-73
2022/01/14 07:14:06;;;;;;;18.20;6.97;;;;;;;-0.32;100.00;99766.38;4481020;32;20513;-72
2022/01/14 07:16:34;;;;;;;16.98;5.72;;;;;;;-0.25;100.00;99760.19;4480053;31;20509;-72
2022/01/14 07:19:03;;;;;;;16.08;6.28;;;;;;;-0.07;100.00;99760.56;4481362;31;20160;-72
2022/01/14 07:21:33;;;;;;;12.75;5.47;;;;;;;0.09;100.00;99759.19;4482278;31;20100;-72
2022/01/14 07:24:04;;;;;;;14.60;5.82;;;;;;;0.37;100.00;99750.59;4483188;32;20472;-73
2022/01/14 07:26:32;;;;;;;10.43;4.97;;;;;;;0.64;100.00;99748.03;4484067;31;20168;-72
2022/01/14 07:28:59;;;;;;;14.48;5.60;;;;;;;0.86;98.97;99741.28;4482296;31;20092;-73
2022/01/14 07:31:26;;;;;;;11.85;4.85;;;;;;;1.01;97.93;99739.88;4480208;31;20100;-72
2022/01/14 07:33:54;;;;;;;11.05;5.00;;;;;;;1.15;97.18;99739.44;4483564;32;20160;-72
2022/01/14 07:36:21;;;;;;;11.05;4.80;;;;;;;1.35;95.96;99732.72;4482422;31;20092;-72
2022/01/14 07:38:48;;;;;;;10.50;5.15;;;;;;;1.47;94.89;99740.03;4482531;31;20445;-73
2022/01/14 07:41:16;;;;;;;13.55;5.22;;;;;;;1.55;94.55;99743.16;4486301;31;20118;-74
2022/01/14 07:43:47;;;;;;;15.52;5.25;;;;;;;1.63;93.99;99749.78;4484240;32;20084;-74
2022/01/14 07:46:15;;;;;;;13.57;5.62;;;;;;;1.66;93.38;99749.69;4478651;31;20097;-73
2022/01/14 07:48:42;;;;;;;13.20;6.22;;;;;;;1.68;93.74;99738.41;4481226;32;20091;-74
2022/01/14 07:51:09;;;;;;;16.08;5.93;;;;;;;1.83;92.86;99747.28;4483997;32;20096;-73
2022/01/14 07:53:37;;;;;;;11.75;5.15;;;;;;;1.83;92.51;99744.72;4485086;31;20587;-73
2022/01/14 07:56:06;;;;;;;16.15;6.20;;;;;;;1.87;91.83;99748.03;4484054;31;20123;-73
2022/01/14 07:58:34;;;;;;;11.88;4.47;;;;;;;1.89;91.65;99744.50;4486391;31;20123;-74
2022/01/14 08:01:01;;;;;;;15.80;6.62;;;;;;;1.91;91.16;99744.47;4482595;31;20119;-72
2022/01/14 08:03:29;;;;;;;13.60;5.75;;;;;;;1.97;91.14;99739.06;4484344;32;20122;-73
2022/01/14 08:05:58;;;;;;;10.43;5.35;;;;;;;1.89;91.49;99736.75;4481789;31;20465;-72
2022/01/14 08:08:25;;;;;;;15.63;5.95;;;;;;;1.84;91.27;99733.50;4484171;31;20167;-73
2022/01/14 08:10:52;;;;;;;15.57;5.68;;;;;;;1.89;91.22;99725.56;4485004;31;20513;-72
2022/01/14 08:13:19;;;;;;;13.40;5.85;;;;;;;2.06;90.56;99723.19;4484110;31;20093;-73
2022/01/14 08:15:47;;;;;;;10.30;3.97;;;;;;;2.18;89.83;99732.22;4476894;32;20509;-72
2022/01/14 08:18:14;;;;;;;10.02;3.75;;;;;;;2.24;89.67;99724.22;4485139;31;20163;-73
2022/01/14 08:20:42;;;;;;;16.92;5.72;;;;;;;2.39;88.41;99729.66;4483859;31;20481;-71
2022/01/14 08:23:09;;;;;;;14.45;5.10;;;;;;;2.44;88.06;99731.16;4483634;31;20104;-71
2022/01/14 08:25:36;;;;;;;12.30;4.85;;;;;;;2.54;87.52;99728.19;4477087;32;20137;-72
2022/01/14 08:28:04;;;;;;;14.82;5.53;;;;;;;2.68;86.80;99715.56;4471688;32;20183;-73
2022/01/14 08:30:31;;;;;;;12.35;4.75;;;;;;;2.71;86.48;99706.81;4475366;32;20108;-72
2022/01/14 08:32:58;;;;;;;14.65;5.40;;;;;;;2.84;85.82;99708.81;4481991;31;20126;-72
2022/01/14 08:35:26;;;;;;;12.18;5.25;;;;;;;2.98;84.91;99707.38;4477516;32;20123;-71
2022/01/14 08:37:53;;;;;;;9.10;5.00;;;;;;;3.05;84.11;99702.81;4478885;31;20115;-73
2022/01/14 08:40:20;;;;;;;7.30;3.62;;;;;;;3.07;84.01;99712.16;4481787;32;20104;-72
2022/01/14 08:42:53;;;;;;;13.25;5.03;;;;;;;3.07;83.91;99696.63;4477808;32;20084;-72
2022/01/14 08:45:24;;;;;;;11.68;5.28;;;;;;;3.10;84.21;99691.31;4472434;32;20104;-72
2022/01/14 08:47:53;;;;;;;9.85;4.80;;;;;;;3.23;83.24;99688.22;4470038;31;20093;-72
2022/01/14 08:50:35;;;;;;;10.15;4.05;;;;;;;3.26;83.30;99688.06;4471518;32;20213;-71
2022/01/14 08:53:07;;;;;;;11.35;4.45;;;;;;;3.33;83.06;99677.38;4469913;32;20108;-71
2022/01/14 08:55:35;;;;;;;8.63;3.62;;;;;;;3.47;82.08;99696.63;4482041;32;20108;-71
2022/01/14 08:58:03;;;;;;;8.57;3.92;;;;;;;3.59;81.60;99692.62;4477451;32;20147;-71
2022/01/14 09:00:31;;;;;;;10.43;4.35;;;;;;;3.62;81.40;99671.75;4472721;32;20123;-72
2022/01/14 09:02:58;;;;;;;8.30;4.50;;;;;;;3.75;80.99;99683.25;4476885;31;20156;-72
2022/01/14 09:05:26;;;;;;;11.80;4.68;;;;;;;3.73;81.08;99677.31;4471063;32;20093;-71
2022/01/14 09:07:53;;;;;;;12.57;4.78;;;;;;;3.70;81.16;99683.47;4476900;31;20205;-71
2022/01/14 09:10:21;;;;;;;12.90;5.18;;;;;;;3.83;80.86;99681.16;4471238;32;20100;-71
2022/01/14 09:12:48;;;;;;;10.57;4.40;;;;;;;3.94;80.40;99690.16;4481415;32;20228;-72
2022/01/14 09:15:15;;;;;;;6.55;3.15;;;;;;;4.09;79.55;99687.69;4472126;32;20545;-71
2022/01/14 09:17:43;;;;;;;7.72;3.70;;;;;;;4.22;79.19;99694.88;4469829;31;20093;-72
2022/01/14 09:20:11;;;;;;;8.18;4.03;;;;;;;4.34;78.41;99681.31;4471927;32;20449;-74
2022/01/14 09:22:40;;;;;;;7.80;2.75;;;;;;;4.47;77.64;99710.09;4482098;31;20466;-72
2022/01/14 09:25:07;;;;;;;5.65;2.83;;;;;;;4.61;76.18;99686.88;4475682;31;20158;-71
2022/01/14 09:27:35;;;;;;;7.00;3.05;;;;;;;4.75;75.66;99680.16;4469976;32;20092;-71
2022/01/14 09:30:04;;;;;;;6.78;3.15;;;;;;;4.86;74.98;99695.19;4478319;31;20157;-70
2022/01/14 09:32:32;;;;;;;7.30;2.67;;;;;;;4.83;74.40;99675.44;4479017;32;20108;-70
2022/01/14 09:35:03;;;;;;;10.68;5.30;;;;;;;4.96;73.76;99673.03;4484073;31;20465;-72
2022/01/14 09:37:30;;;;;;;8.38;3.42;;;;;;;4.83;73.29;99677.19;4478320;31;20100;-72
2022/01/14 09:39:58;;;;;;;15.10;4.78;;;;;;;4.95;72.95;99663.56;4479265;31;20109;-72
2022/01/14 09:42:25;;;;;;;5.53;3.15;;;;;;;4.98;72.74;99653.03;4477001;32;20480;-72
2022/01/14 09:44:52;;;;;;;8.85;3.45;;;;;;;5.03;72.47;99653.62;4476004;31;20096;-72
2022/01/14 09:47:20;;;;;;;13.60;3.40;;;;;;;5.11;72.32;99651.47;4477736;32;20114;-72
2022/01/14 09:49:48;;;;;;;7.65;3.65;;;;;;;5.26;71.06;99654.19;4479988;31;77089;-72
2022/01/14 09:52:16;;;;;;;9.35;2.95;;;;;;;5.16;71.44;99648.63;4482682;31;20088;-72
2022/01/14 09:54:45;;;;;;;7.35;4.03;;;;;;;5.15;70.55;99673.78;4483731;32;20146;-72
2022/01/14 09:57:16;;;;;;;5.25;2.40;;;;;;;5.15;71.01;99653.00;4470482;32;20101;-72
2022/01/14 09:59:43;;;;;;;6.72;3.33;;;;;;;5.24;70.69;99656.88;4469728;32;20089;-72
2022/01/14 10:02:30;;;;;;;6.30;2.85;;;;;;;5.30;70.06;99646.16;4472897;32;20115;-72
2022/01/14 10:04:58;;;;;;;7.05;3.60;;;;;;;5.39;70.37;99652.63;4481662;32;20126;-71
2022/01/14 10:07:25;;;;;;;6.72;2.80;;;;;;;5.37;69.57;99657.03;4479757;32;20163;-72
2022/01/14 10:10:00;;;;;;;6.53;3.05;;;;;;;5.30;69.62;99646.16;4480183;32;20157;-72
2022/01/14 10:12:33;;;;;;;5.43;2.50;;;;;;;5.40;69.29;99641.28;4469130;32;20109;-71
2022/01/14 10:15:11;;;;;;;7.47;3.40;;;;;;;5.39;69.10;99639.62;4480886;32;20110;-71
2022/01/14 10:17:41;;;;;;;9.10;3.30;;;;;;;5.45;68.54;99626.31;4479073;31;20103;-72
2022/01/14 10:20:11;;;;;;;7.40;3.10;;;;;;;5.52;68.71;99621.59;4471288;32;20762;-71
2022/01/14 10:22:41;;;;;;;8.50;3.30;;;;;;;5.54;68.22;99631.91;4477899;32;20197;-72
2022/01/14 10:25:15;;;;;;;5.28;3.10;;;;;;;5.51;68.31;99628.56;4474617;31;20155;-72
2022/01/14 10:27:51;;;;;;;8.07;3.28;;;;;;;5.60;67.64;99621.16;4468890;32;20092;-72
2022/01/14 10:30:31;;;;;;;6.30;2.80;;;;;;;5.52;67.73;99629.38;4475694;32;20092;-71
2022/01/14 10:33:08;;;;;;;13.32;4.87;;;;;;;5.62;67.08;99608.94;4477701;31;20178;-71
2022/01/14 10:35:42;;;;;;;10.88;4.93;;;;;;;5.68;67.42;99606.00;4477871;31;20107;-71
2022/01/14 10:38:21;;;;;;;10.93;3.95;;;;;;;5.70;67.05;99604.16;4479034;31;20150;-71
2022/01/14 10:40:50;;;;;;;6.72;2.80;;;;;;;5.78;66.19;99588.94;4478641;32;20127;-71
2022/01/14 10:43:23;;;;;;;11.02;5.32;;;;;;;5.78;65.92;99588.13;4474939;32;20128;-72
2022/01/14 10:45:54;;;;;;;6.82;2.60;;;;;;;5.73;66.45;99590.97;4474641;32;20145;-73
2022/01/14 10:48:33;;;;;;;7.43;3.65;;;;;;;5.65;66.18;99580.19;4479428;32;20142;-72
2022/01/14 10:51:06;;;;;;;16.92;5.45;;;;;;;5.61;66.23;99560.47;4479138;31;20096;-73
2022/01/14 10:53:35;;;;;;;9.18;4.32;;;;;;;5.72;66.38;99568.50;4483218;31;20084;-73
2022/01/14 10:56:08;;;;;;;11.60;5.07;;;;;;;5.76;66.24;99556.19;4479678;31;20093;-71
2022/01/14 10:58:38;;;;;;;7.25;2.67;;;;;;;5.90;65.96;99560.59;4485436;31;20791;-71
2022/01/14 11:01:14;;;;;;;10.07;5.45;;;;;;;5.79;65.87;99551.63;4478765;31;20088;-71
2022/01/14 11:03:44;;;;;;;9.75;3.78;;;;;;;5.75;66.36;99534.53;4469121;32;20159;-71
2022/01/14 11:06:19;;;;;;;6.50;2.78;;;;;;;5.78;66.00;99536.94;4481385;31;20105;-72
2022/01/14 11:08:49;;;;;;;8.60;2.83;;;;;;;5.79;66.14;99540.41;4478780;31;20105;-71
2022/01/14 11:11:16;;;;;;;6.20;3.30;;;;;;;5.71;66.32;99540.84;4470016;32;20085;-71
2022/01/14 11:13:47;;;;;;;6.78;3.42;;;;;;;5.84;65.87;99520.16;4475028;32;20161;-71
2022/01/14 11:16:14;;;;;;;6.53;2.95;;;;;;;5.83;65.88;99526.31;4483294;32;20107;-71
2022/01/14 11:18:43;;;;;;;7.97;2.97;;;;;;;5.80;65.87;99519.50;4479050;32;20389;-70
2022/01/14 11:23:57;;;;;;;9.98;3.25;;;;;;;5.73;65.89;99518.19;4481862;31;20632;-71
2022/01/14 11:26:29;;;;;;;7.75;3.25;;;;;;;5.74;65.67;99493.88;4485253;31;20115;-71
2022/01/14 11:29:12;;;;;;;4.25;2.45;;;;;;;5.79;65.74;99509.19;4484033;32;20131;-71
2022/01/14 11:31:41;;;;;;;4.93;2.87;;;;;;;5.74;65.71;99517.28;4477040;32;20093;-71
2022/01/14 11:34:32;;;;;;;12.55;4.40;;;;;;;5.86;65.56;99529.56;4480218;31;20148;-71
2022/01/14 11:37:10;;;;;;;10.38;3.95;;;;;;;5.85;65.45;99509.66;4479398;32;20167;-71
2022/01/14 11:39:40;;;;;;;13.18;4.70;;;;;;;5.74;65.87;99499.06;4485299;31;20524;-71
2022/01/14 11:42:12;;;;;;;9.27;3.47;;;;;;;5.85;65.91;99504.47;4485010;31;20118;-72
2022/01/14 11:47:26;;;;;;;8.27;3.83;;;;;;;5.80;66.12;99498.72;4483226;31;20122;-72
2022/01/14 11:49:55;;;;;;;17.23;6.70;;;;;;;5.84;66.32;99499.34;4476652;31;20089;-71
2022/01/14 11:52:40;;;;;;;7.72;3.67;;;;;;;5.81;66.56;99479.59;4478207;31;20101;-71
2022/01/14 11:55:29;;;;;;;8.07;3.40;;;;;;;5.67;67.21;99502.94;4478038;31;20118;-71
2022/01/14 11:58:03;;;;;;;7.70;3.53;;;;;;;5.54;67.61;99474.22;4448012;32;20191;-70
2022/01/14 12:00:41;;;;;;;8.52;3.12;;;;;;;5.48;67.87;99457.22;4450976;32;20157;-71
2022/01/14 12:03:15;;;;;;;8.40;3.92;;;;;;;5.51;67.75;99451.84;4448304;32;20168;-70
2022/01/14 12:05:53;;;;;;;16.67;7.25;;;;;;;5.51;68.03;99446.66;4445585;32;20540;-71
2022/01/14 12:08:29;;;;;;;8.25;3.87;;;;;;;5.54;68.17;99436.97;4443586;32;20109;-71
2022/01/14 12:10:58;;;;;;;12.50;4.50;;;;;;;5.66;67.70;99439.72;4447382;32;20127;-70
2022/01/14 12:13:37;;;;;;;17.08;6.65;;;;;;;5.62;67.72;99429.59;4447108;32;20770;-70